sensor_id;sensor_type;location;lat;lon;timestamp;temperature;humidity
12874;DHT22;6505;51.114;13.128;2022-09-21T00:01:33;17.60;58.70
12874;DHT22;6505;51.114;13.128;2022-09-21T00:04:02;17.60;58.60
12874;DHT22;6505;51.114;13.128;2022-09-21T00:06:33;17.60;58.60
12874;DHT22;6505;51.114;13.128;2022-09-21T00:09:02;17.50;58.50
12874;DHT22;6505;51.114;13.128;2022-09-21T00:11:33;17.50;58.50
12874;DHT22;6505;51.114;13.128;2022-09-21T00:14:05;17.50;58.50
12874;DHT22;6505;51.114;13.128;2022-09-21T00:16:38;17.60;58.60
12874;DHT22;6505;51.114;13.128;2022-09-21T00:19:08;17.50;59.20
12874;DHT22;6505;51.114;13.128;2022-09-21T00:21:38;17.50;58.50
12874;DHT22;6505;51.114;13.128;2022-09-21T00:24:08;17.50;58.40
12874;DHT22;6505;51.114;13.128;2022-09-21T00:26:36;17.50;58.40
12874;DHT22;6505;51.114;13.128;2022-09-21T00:29:04;17.40;58.30
12874;DHT22;6505;51.114;13.128;2022-09-21T00:31:32;17.40;58.40
12874;DHT22;6505;51.114;13.128;2022-09-21T00:34:01;17.40;58.30
12874;DHT22;6505;51.114;13.128;2022-09-21T00:36:33;17.40;58.40
12874;DHT22;6505;51.114;13.128;2022-09-21T00:39:02;17.40;58.40
12874;DHT22;6505;51.114;13.128;2022-09-21T00:41:32;17.40;58.40
12874;DHT22;6505;51.114;13.128;2022-09-21T00:44:26;17.40;58.30
12874;DHT22;6505;51.114;13.128;2022-09-21T00:47:00;17.30;58.20
12874;DHT22;6505;51.114;13.128;2022-09-21T00:49:32;17.40;58.90
12874;DHT22;6505;51.114;13.128;2022-09-21T00:52:03;17.30;58.10
12874;DHT22;6505;51.114;13.128;2022-09-21T00:54:36;17.30;58.10
12874;DHT22;6505;51.114;13.128;2022-09-21T00:57:09;17.30;58.00
12874;DHT22;6505;51.114;13.128;2022-09-21T00:59:38;17.30;57.90
12874;DHT22;6505;51.114;13.128;2022-09-21T01:02:10;17.30;57.70
12874;DHT22;6505;51.114;13.128;2022-09-21T01:04:38;17.20;57.70
12874;DHT22;6505;51.114;13.128;2022-09-21T01:07:09;17.20;57.70
12874;DHT22;6505;51.114;13.128;2022-09-21T01:09:42;17.20;57.70
12874;DHT22;6505;51.114;13.128;2022-09-21T01:12:24;17.20;58.40
12874;DHT22;6505;51.114;13.128;2022-09-21T01:15:17;17.20;57.80
12874;DHT22;6505;51.114;13.128;2022-09-21T01:17:53;17.10;57.60
12874;DHT22;6505;51.114;13.128;2022-09-21T01:24:13;17.10;57.50
12874;DHT22;6505;51.114;13.128;2022-09-21T01:27:19;17.10;57.60
12874;DHT22;6505;51.114;13.128;2022-09-21T01:30:02;17.10;57.70
12874;DHT22;6505;51.114;13.128;2022-09-21T01:32:36;17.10;57.70
12874;DHT22;6505;51.114;13.128;2022-09-21T01:35:11;17.00;57.60
12874;DHT22;6505;51.114;13.128;2022-09-21T01:37:45;17.00;57.60
12874;DHT22;6505;51.114;13.128;2022-09-21T01:40:20;17.00;57.60
12874;DHT22;6505;51.114;13.128;2022-09-21T01:42:53;17.00;57.70
12874;DHT22;6505;51.114;13.128;2022-09-21T01:45:27;17.00;57.80
12874;DHT22;6505;51.114;13.128;2022-09-21T01:47:59;17.00;57.70
12874;DHT22;6505;51.114;13.128;2022-09-21T01:50:31;17.00;57.70
12874;DHT22;6505;51.114;13.128;2022-09-21T01:53:08;16.90;57.60
12874;DHT22;6505;51.114;13.128;2022-09-21T01:55:43;16.90;57.60
12874;DHT22;6505;51.114;13.128;2022-09-21T01:58:19;17.00;57.60
12874;DHT22;6505;51.114;13.128;2022-09-21T02:00:56;16.90;57.40
12874;DHT22;6505;51.114;13.128;2022-09-21T02:03:28;16.90;57.30
12874;DHT22;6505;51.114;13.128;2022-09-21T02:06:03;16.90;57.40
12874;DHT22;6505;51.114;13.128;2022-09-21T02:08:33;16.90;57.50
12874;DHT22;6505;51.114;13.128;2022-09-21T02:11:04;16.90;57.50
12874;DHT22;6505;51.114;13.128;2022-09-21T02:13:35;16.90;57.50
12874;DHT22;6505;51.114;13.128;2022-09-21T02:16:25;16.90;57.60
12874;DHT22;6505;51.114;13.128;2022-09-21T02:19:09;16.90;57.60
12874;DHT22;6505;51.114;13.128;2022-09-21T02:21:48;16.90;57.70
12874;DHT22;6505;51.114;13.128;2022-09-21T02:24:29;16.90;57.70
12874;DHT22;6505;51.114;13.128;2022-09-21T02:27:04;16.90;57.70
12874;DHT22;6505;51.114;13.128;2022-09-21T02:29:41;16.90;57.80
12874;DHT22;6505;51.114;13.128;2022-09-21T02:32:24;16.90;57.80
12874;DHT22;6505;51.114;13.128;2022-09-21T02:35:01;16.90;57.80
12874;DHT22;6505;51.114;13.128;2022-09-21T02:37:37;16.90;57.80
12874;DHT22;6505;51.114;13.128;2022-09-21T02:40:17;16.90;57.90
12874;DHT22;6505;51.114;13.128;2022-09-21T02:42:54;16.90;57.90
12874;DHT22;6505;51.114;13.128;2022-09-21T02:45:28;16.90;57.90
12874;DHT22;6505;51.114;13.128;2022-09-21T02:48:04;16.90;57.90
12874;DHT22;6505;51.114;13.128;2022-09-21T02:50:38;16.90;57.80
12874;DHT22;6505;51.114;13.128;2022-09-21T02:53:10;16.90;57.80
12874;DHT22;6505;51.114;13.128;2022-09-21T02:55:42;16.90;57.80
12874;DHT22;6505;51.114;13.128;2022-09-21T02:58:13;16.80;57.50
12874;DHT22;6505;51.114;13.128;2022-09-21T03:00:44;16.80;57.60
12874;DHT22;6505;51.114;13.128;2022-09-21T03:03:17;16.80;57.50
12874;DHT22;6505;51.114;13.128;2022-09-21T03:05:49;16.80;57.60
12874;DHT22;6505;51.114;13.128;2022-09-21T03:08:19;16.80;57.60
12874;DHT22;6505;51.114;13.128;2022-09-21T03:10:48;16.80;57.60
12874;DHT22;6505;51.114;13.128;2022-09-21T03:13:16;16.80;57.50
12874;DHT22;6505;51.114;13.128;2022-09-21T03:15:45;16.80;57.50
12874;DHT22;6505;51.114;13.128;2022-09-21T03:18:13;16.80;57.50
12874;DHT22;6505;51.114;13.128;2022-09-21T03:20:44;16.80;57.60
12874;DHT22;6505;51.114;13.128;2022-09-21T03:23:13;16.80;57.50
12874;DHT22;6505;51.114;13.128;2022-09-21T03:25:43;16.70;57.50
12874;DHT22;6505;51.114;13.128;2022-09-21T03:28:12;16.80;57.50
12874;DHT22;6505;51.114;13.128;2022-09-21T03:30:41;16.70;57.40
12874;DHT22;6505;51.114;13.128;2022-09-21T03:33:09;16.70;57.30
12874;DHT22;6505;51.114;13.128;2022-09-21T03:35:40;16.70;57.40
12874;DHT22;6505;51.114;13.128;2022-09-21T03:38:08;16.70;57.40
12874;DHT22;6505;51.114;13.128;2022-09-21T03:40:36;16.70;57.40
12874;DHT22;6505;51.114;13.128;2022-09-21T03:43:04;16.70;57.40
12874;DHT22;6505;51.114;13.128;2022-09-21T03:45:32;16.70;57.40
12874;DHT22;6505;51.114;13.128;2022-09-21T03:48:01;16.60;57.40
12874;DHT22;6505;51.114;13.128;2022-09-21T03:50:29;16.70;57.40
12874;DHT22;6505;51.114;13.128;2022-09-21T03:52:58;16.70;57.40
12874;DHT22;6505;51.114;13.128;2022-09-21T03:55:26;16.60;57.40
12874;DHT22;6505;51.114;13.128;2022-09-21T03:57:55;16.60;57.40
12874;DHT22;6505;51.114;13.128;2022-09-21T04:00:23;16.60;57.40
12874;DHT22;6505;51.114;13.128;2022-09-21T04:02:51;16.60;57.30
12874;DHT22;6505;51.114;13.128;2022-09-21T04:05:19;16.70;57.50
12874;DHT22;6505;51.114;13.128;2022-09-21T04:07:47;16.70;57.50
12874;DHT22;6505;51.114;13.128;2022-09-21T04:10:19;16.60;57.50
12874;DHT22;6505;51.114;13.128;2022-09-21T04:12:49;16.60;57.50
12874;DHT22;6505;51.114;13.128;2022-09-21T04:15:18;16.60;57.40
12874;DHT22;6505;51.114;13.128;2022-09-21T04:17:49;16.60;57.40
12874;DHT22;6505;51.114;13.128;2022-09-21T04:20:18;16.60;57.50
12874;DHT22;6505;51.114;13.128;2022-09-21T04:22:46;16.60;57.40
12874;DHT22;6505;51.114;13.128;2022-09-21T04:25:15;16.60;57.20
12874;DHT22;6505;51.114;13.128;2022-09-21T04:27:45;16.60;57.10
12874;DHT22;6505;51.114;13.128;2022-09-21T04:30:14;16.60;57.10
12874;DHT22;6505;51.114;13.128;2022-09-21T04:32:43;16.50;57.00
12874;DHT22;6505;51.114;13.128;2022-09-21T04:35:11;16.50;57.00
12874;DHT22;6505;51.114;13.128;2022-09-21T04:37:38;16.50;56.90
12874;DHT22;6505;51.114;13.128;2022-09-21T04:40:07;16.50;56.90
12874;DHT22;6505;51.114;13.128;2022-09-21T04:42:37;16.50;57.00
12874;DHT22;6505;51.114;13.128;2022-09-21T04:45:06;16.50;56.90
12874;DHT22;6505;51.114;13.128;2022-09-21T04:47:34;16.50;57.00
12874;DHT22;6505;51.114;13.128;2022-09-21T04:50:03;16.40;56.80
12874;DHT22;6505;51.114;13.128;2022-09-21T04:52:31;16.50;57.00
12874;DHT22;6505;51.114;13.128;2022-09-21T04:54:59;16.50;57.00
12874;DHT22;6505;51.114;13.128;2022-09-21T04:57:28;16.50;57.00
12874;DHT22;6505;51.114;13.128;2022-09-21T04:59:57;16.50;57.10
12874;DHT22;6505;51.114;13.128;2022-09-21T05:02:25;16.40;57.00
12874;DHT22;6505;51.114;13.128;2022-09-21T05:04:53;16.40;57.00
12874;DHT22;6505;51.114;13.128;2022-09-21T05:07:21;16.40;57.10
12874;DHT22;6505;51.114;13.128;2022-09-21T05:09:49;16.40;57.20
12874;DHT22;6505;51.114;13.128;2022-09-21T05:12:28;16.40;57.20
12874;DHT22;6505;51.114;13.128;2022-09-21T05:14:57;16.40;57.30
12874;DHT22;6505;51.114;13.128;2022-09-21T05:17:26;16.40;57.30
12874;DHT22;6505;51.114;13.128;2022-09-21T05:19:54;16.40;57.40
12874;DHT22;6505;51.114;13.128;2022-09-21T05:22:26;16.40;57.50
12874;DHT22;6505;51.114;13.128;2022-09-21T05:24:55;16.40;57.60
12874;DHT22;6505;51.114;13.128;2022-09-21T05:27:23;16.40;57.40
12874;DHT22;6505;51.114;13.128;2022-09-21T05:29:52;16.40;57.50
12874;DHT22;6505;51.114;13.128;2022-09-21T05:32:26;16.40;57.60
12874;DHT22;6505;51.114;13.128;2022-09-21T05:35:05;16.40;57.70
12874;DHT22;6505;51.114;13.128;2022-09-21T05:37:47;16.40;57.70
12874;DHT22;6505;51.114;13.128;2022-09-21T05:40:22;16.40;57.80
12874;DHT22;6505;51.114;13.128;2022-09-21T05:42:51;16.40;57.80
12874;DHT22;6505;51.114;13.128;2022-09-21T05:45:20;16.40;57.90
12874;DHT22;6505;51.114;13.128;2022-09-21T05:47:57;16.50;58.70
12874;DHT22;6505;51.114;13.128;2022-09-21T05:50:45;16.50;58.00
12874;DHT22;6505;51.114;13.128;2022-09-21T05:53:30;16.40;58.00
12874;DHT22;6505;51.114;13.128;2022-09-21T05:56:12;16.50;58.10
12874;DHT22;6505;51.114;13.128;2022-09-21T05:58:55;16.50;58.10
12874;DHT22;6505;51.114;13.128;2022-09-21T06:01:41;16.50;58.10
12874;DHT22;6505;51.114;13.128;2022-09-21T06:04:20;16.50;58.10
12874;DHT22;6505;51.114;13.128;2022-09-21T06:06:49;16.50;58.30
12874;DHT22;6505;51.114;13.128;2022-09-21T06:09:17;16.50;58.20
12874;DHT22;6505;51.114;13.128;2022-09-21T06:11:46;16.60;58.30
12874;DHT22;6505;51.114;13.128;2022-09-21T06:14:14;16.60;58.30
12874;DHT22;6505;51.114;13.128;2022-09-21T06:16:42;16.60;58.30
12874;DHT22;6505;51.114;13.128;2022-09-21T06:19:11;16.60;58.30
12874;DHT22;6505;51.114;13.128;2022-09-21T06:21:40;16.60;58.40
12874;DHT22;6505;51.114;13.128;2022-09-21T06:24:08;16.60;58.50
12874;DHT22;6505;51.114;13.128;2022-09-21T06:26:37;16.60;58.40
12874;DHT22;6505;51.114;13.128;2022-09-21T06:29:05;16.60;58.40
12874;DHT22;6505;51.114;13.128;2022-09-21T06:31:33;16.60;58.40
12874;DHT22;6505;51.114;13.128;2022-09-21T06:34:02;16.60;58.50
12874;DHT22;6505;51.114;13.128;2022-09-21T06:36:30;16.60;58.70
12874;DHT22;6505;51.114;13.128;2022-09-21T06:39:02;16.70;58.90
12874;DHT22;6505;51.114;13.128;2022-09-21T06:41:30;16.70;59.00
12874;DHT22;6505;51.114;13.128;2022-09-21T06:43:58;16.70;59.20
12874;DHT22;6505;51.114;13.128;2022-09-21T06:46:27;16.70;59.40
12874;DHT22;6505;51.114;13.128;2022-09-21T06:48:55;16.70;59.50
12874;DHT22;6505;51.114;13.128;2022-09-21T06:51:23;16.70;59.50
12874;DHT22;6505;51.114;13.128;2022-09-21T06:53:53;16.80;59.70
12874;DHT22;6505;51.114;13.128;2022-09-21T06:56:24;16.90;59.80
12874;DHT22;6505;51.114;13.128;2022-09-21T06:58:53;17.00;59.70
12874;DHT22;6505;51.114;13.128;2022-09-21T07:01:21;17.00;59.70
12874;DHT22;6505;51.114;13.128;2022-09-21T07:03:51;17.00;59.60
12874;DHT22;6505;51.114;13.128;2022-09-21T07:06:19;17.10;59.70
12874;DHT22;6505;51.114;13.128;2022-09-21T07:08:50;17.10;59.70
12874;DHT22;6505;51.114;13.128;2022-09-21T07:11:40;17.10;59.70
12874;DHT22;6505;51.114;13.128;2022-09-21T07:14:08;17.20;59.80
12874;DHT22;6505;51.114;13.128;2022-09-21T07:16:36;17.30;60.00
12874;DHT22;6505;51.114;13.128;2022-09-21T07:19:04;17.30;59.90
12874;DHT22;6505;51.114;13.128;2022-09-21T07:21:39;17.40;60.00
12874;DHT22;6505;51.114;13.128;2022-09-21T07:24:07;17.40;59.90
12874;DHT22;6505;51.114;13.128;2022-09-21T07:26:39;17.40;59.70
12874;DHT22;6505;51.114;13.128;2022-09-21T07:29:07;17.40;59.70
12874;DHT22;6505;51.114;13.128;2022-09-21T07:31:35;17.50;59.60
12874;DHT22;6505;51.114;13.128;2022-09-21T07:34:04;17.50;59.60
12874;DHT22;6505;51.114;13.128;2022-09-21T07:36:32;17.60;59.50
12874;DHT22;6505;51.114;13.128;2022-09-21T07:39:00;17.60;59.40
12874;DHT22;6505;51.114;13.128;2022-09-21T07:41:28;17.60;59.30
12874;DHT22;6505;51.114;13.128;2022-09-21T07:43:57;17.70;59.30
12874;DHT22;6505;51.114;13.128;2022-09-21T07:46:25;17.70;59.30
12874;DHT22;6505;51.114;13.128;2022-09-21T07:48:53;17.70;59.00
12874;DHT22;6505;51.114;13.128;2022-09-21T07:51:22;17.70;59.00
12874;DHT22;6505;51.114;13.128;2022-09-21T07:53:54;17.70;59.00
12874;DHT22;6505;51.114;13.128;2022-09-21T07:56:23;17.70;58.90
12874;DHT22;6505;51.114;13.128;2022-09-21T07:58:52;17.70;58.90
12874;DHT22;6505;51.114;13.128;2022-09-21T08:01:34;17.80;59.00
12874;DHT22;6505;51.114;13.128;2022-09-21T08:04:04;17.80;59.10
12874;DHT22;6505;51.114;13.128;2022-09-21T08:06:35;17.80;59.10
12874;DHT22;6505;51.114;13.128;2022-09-21T08:09:06;17.80;59.10
12874;DHT22;6505;51.114;13.128;2022-09-21T08:11:35;17.80;59.00
12874;DHT22;6505;51.114;13.128;2022-09-21T08:14:04;17.80;59.10
12874;DHT22;6505;51.114;13.128;2022-09-21T08:16:33;17.90;59.10
12874;DHT22;6505;51.114;13.128;2022-09-21T08:19:01;17.90;59.50
12874;DHT22;6505;51.114;13.128;2022-09-21T08:21:31;18.00;60.00
12874;DHT22;6505;51.114;13.128;2022-09-21T08:24:00;18.10;60.20
12874;DHT22;6505;51.114;13.128;2022-09-21T08:26:28;18.20;60.10
12874;DHT22;6505;51.114;13.128;2022-09-21T08:28:56;18.40;59.90
12874;DHT22;6505;51.114;13.128;2022-09-21T08:31:25;18.50;59.60
12874;DHT22;6505;51.114;13.128;2022-09-21T08:33:55;18.60;59.30
12874;DHT22;6505;51.114;13.128;2022-09-21T08:36:23;18.70;58.80
12874;DHT22;6505;51.114;13.128;2022-09-21T08:38:52;18.90;58.70
12874;DHT22;6505;51.114;13.128;2022-09-21T08:41:34;18.90;58.10
12874;DHT22;6505;51.114;13.128;2022-09-21T08:44:16;19.00;57.90
12874;DHT22;6505;51.114;13.128;2022-09-21T08:46:50;19.10;57.90
12874;DHT22;6505;51.114;13.128;2022-09-21T08:49:26;19.10;57.90
12874;DHT22;6505;51.114;13.128;2022-09-21T08:52:01;19.20;57.70
12874;DHT22;6505;51.114;13.128;2022-09-21T08:54:37;19.20;57.30
12874;DHT22;6505;51.114;13.128;2022-09-21T08:57:11;19.20;57.40
12874;DHT22;6505;51.114;13.128;2022-09-21T08:59:43;19.20;57.50
12874;DHT22;6505;51.114;13.128;2022-09-21T09:02:29;19.10;57.10
12874;DHT22;6505;51.114;13.128;2022-09-21T09:05:14;19.10;57.10
12874;DHT22;6505;51.114;13.128;2022-09-21T09:08:10;19.10;57.40
12874;DHT22;6505;51.114;13.128;2022-09-21T09:11:01;19.10;57.60
12874;DHT22;6505;51.114;13.128;2022-09-21T09:13:49;19.10;57.70
12874;DHT22;6505;51.114;13.128;2022-09-21T09:16:30;19.10;57.60
12874;DHT22;6505;51.114;13.128;2022-09-21T09:19:10;19.00;57.40
12874;DHT22;6505;51.114;13.128;2022-09-21T09:21:50;19.00;57.80
12874;DHT22;6505;51.114;13.128;2022-09-21T09:24:29;19.00;57.90
12874;DHT22;6505;51.114;13.128;2022-09-21T09:27:02;19.00;58.00
12874;DHT22;6505;51.114;13.128;2022-09-21T09:29:36;19.00;58.30
12874;DHT22;6505;51.114;13.128;2022-09-21T09:32:13;19.00;58.50
12874;DHT22;6505;51.114;13.128;2022-09-21T09:34:48;19.00;58.60
12874;DHT22;6505;51.114;13.128;2022-09-21T09:37:28;19.00;58.50
12874;DHT22;6505;51.114;13.128;2022-09-21T09:40:00;19.00;58.80
12874;DHT22;6505;51.114;13.128;2022-09-21T09:42:41;19.00;58.80
12874;DHT22;6505;51.114;13.128;2022-09-21T09:45:38;19.00;59.10
12874;DHT22;6505;51.114;13.128;2022-09-21T09:48:29;18.90;58.60
12874;DHT22;6505;51.114;13.128;2022-09-21T09:51:12;19.00;58.70
12874;DHT22;6505;51.114;13.128;2022-09-21T09:53:41;19.00;58.60
12874;DHT22;6505;51.114;13.128;2022-09-21T09:56:09;19.00;58.70
12874;DHT22;6505;51.114;13.128;2022-09-21T09:58:42;19.10;58.70
12874;DHT22;6505;51.114;13.128;2022-09-21T10:01:35;19.00;58.60
12874;DHT22;6505;51.114;13.128;2022-09-21T10:04:06;19.00;58.70
12874;DHT22;6505;51.114;13.128;2022-09-21T10:06:36;19.10;58.60
12874;DHT22;6505;51.114;13.128;2022-09-21T10:09:23;19.10;58.60
12874;DHT22;6505;51.114;13.128;2022-09-21T10:11:55;19.20;58.70
12874;DHT22;6505;51.114;13.128;2022-09-21T10:14:28;19.10;58.60
12874;DHT22;6505;51.114;13.128;2022-09-21T10:17:04;19.20;58.70
12874;DHT22;6505;51.114;13.128;2022-09-21T10:19:34;19.30;58.80
12874;DHT22;6505;51.114;13.128;2022-09-21T10:22:04;19.30;58.70
12874;DHT22;6505;51.114;13.128;2022-09-21T10:24:35;19.30;58.70
12874;DHT22;6505;51.114;13.128;2022-09-21T10:27:10;19.40;58.60
12874;DHT22;6505;51.114;13.128;2022-09-21T10:29:42;19.40;58.90
12874;DHT22;6505;51.114;13.128;2022-09-21T10:32:19;19.50;58.90
12874;DHT22;6505;51.114;13.128;2022-09-21T10:35:15;19.50;58.90
12874;DHT22;6505;51.114;13.128;2022-09-21T10:37:46;19.60;58.70
12874;DHT22;6505;51.114;13.128;2022-09-21T10:40:28;19.50;58.50
12874;DHT22;6505;51.114;13.128;2022-09-21T10:42:58;19.60;58.20
12874;DHT22;6505;51.114;13.128;2022-09-21T10:45:28;19.70;58.40
12874;DHT22;6505;51.114;13.128;2022-09-21T10:48:06;19.60;58.40
12874;DHT22;6505;51.114;13.128;2022-09-21T10:50:41;19.60;58.10
12874;DHT22;6505;51.114;13.128;2022-09-21T10:53:12;19.60;58.00
12874;DHT22;6505;51.114;13.128;2022-09-21T10:55:55;19.60;57.70
12874;DHT22;6505;51.114;13.128;2022-09-21T10:59:08;19.60;57.90
12874;DHT22;6505;51.114;13.128;2022-09-21T11:01:42;19.60;58.00
12874;DHT22;6505;51.114;13.128;2022-09-21T11:04:16;19.60;58.10
12874;DHT22;6505;51.114;13.128;2022-09-21T11:06:51;19.60;58.10
12874;DHT22;6505;51.114;13.128;2022-09-21T11:09:25;19.60;58.10
12874;DHT22;6505;51.114;13.128;2022-09-21T11:12:07;19.60;58.00
12874;DHT22;6505;51.114;13.128;2022-09-21T11:14:50;19.60;58.00
12874;DHT22;6505;51.114;13.128;2022-09-21T11:17:32;19.70;58.10
12874;DHT22;6505;51.114;13.128;2022-09-21T11:20:12;19.70;58.20
12874;DHT22;6505;51.114;13.128;2022-09-21T11:22:54;19.70;57.90
12874;DHT22;6505;51.114;13.128;2022-09-21T11:25:33;19.70;58.00
12874;DHT22;6505;51.114;13.128;2022-09-21T11:28:14;19.60;57.80
12874;DHT22;6505;51.114;13.128;2022-09-21T11:31:17;19.70;57.80
12874;DHT22;6505;51.114;13.128;2022-09-21T11:34:14;19.70;57.70
12874;DHT22;6505;51.114;13.128;2022-09-21T11:37:10;19.70;57.70
12874;DHT22;6505;51.114;13.128;2022-09-21T11:39:57;19.80;57.80
12874;DHT22;6505;51.114;13.128;2022-09-21T11:42:47;19.80;57.60
12874;DHT22;6505;51.114;13.128;2022-09-21T11:45:44;19.80;57.20
12874;DHT22;6505;51.114;13.128;2022-09-21T11:48:26;19.80;56.60
12874;DHT22;6505;51.114;13.128;2022-09-21T11:51:14;19.80;56.70
12874;DHT22;6505;51.114;13.128;2022-09-21T11:54:08;19.80;56.30
12874;DHT22;6505;51.114;13.128;2022-09-21T11:56:50;19.80;56.40
12874;DHT22;6505;51.114;13.128;2022-09-21T11:59:35;19.80;56.60
12874;DHT22;6505;51.114;13.128;2022-09-21T12:02:28;19.70;56.70
12874;DHT22;6505;51.114;13.128;2022-09-21T12:05:23;19.70;56.70
12874;DHT22;6505;51.114;13.128;2022-09-21T12:08:17;19.80;56.70
12874;DHT22;6505;51.114;13.128;2022-09-21T12:11:00;19.80;56.70
12874;DHT22;6505;51.114;13.128;2022-09-21T12:13:42;19.70;56.40
12874;DHT22;6505;51.114;13.128;2022-09-21T12:16:23;19.80;56.90
12874;DHT22;6505;51.114;13.128;2022-09-21T12:19:06;19.80;57.30
12874;DHT22;6505;51.114;13.128;2022-09-21T12:21:44;19.80;57.20
12874;DHT22;6505;51.114;13.128;2022-09-21T12:24:17;19.80;57.40
12874;DHT22;6505;51.114;13.128;2022-09-21T12:26:51;19.80;57.00
12874;DHT22;6505;51.114;13.128;2022-09-21T12:29:26;19.80;56.60
12874;DHT22;6505;51.114;13.128;2022-09-21T12:32:02;19.90;56.40
12874;DHT22;6505;51.114;13.128;2022-09-21T12:34:39;19.90;55.80
12874;DHT22;6505;51.114;13.128;2022-09-21T12:37:13;19.90;56.00
12874;DHT22;6505;51.114;13.128;2022-09-21T12:39:50;19.90;56.20
12874;DHT22;6505;51.114;13.128;2022-09-21T12:42:30;20.00;55.90
12874;DHT22;6505;51.114;13.128;2022-09-21T12:45:06;19.90;56.00
12874;DHT22;6505;51.114;13.128;2022-09-21T12:47:47;19.90;55.80
12874;DHT22;6505;51.114;13.128;2022-09-21T12:50:26;19.90;56.10
12874;DHT22;6505;51.114;13.128;2022-09-21T12:52:58;20.00;56.40
12874;DHT22;6505;51.114;13.128;2022-09-21T12:55:36;20.00;56.40
12874;DHT22;6505;51.114;13.128;2022-09-21T12:58:22;20.00;55.70
12874;DHT22;6505;51.114;13.128;2022-09-21T13:01:05;20.00;55.30
12874;DHT22;6505;51.114;13.128;2022-09-21T13:03:51;20.00;55.00
12874;DHT22;6505;51.114;13.128;2022-09-21T13:09:42;20.10;54.80
12874;DHT22;6505;51.114;13.128;2022-09-21T13:12:15;20.10;54.60
12874;DHT22;6505;51.114;13.128;2022-09-21T13:14:50;20.10;54.50
12874;DHT22;6505;51.114;13.128;2022-09-21T13:17:29;20.10;54.60
12874;DHT22;6505;51.114;13.128;2022-09-21T13:20:01;20.10;54.50
12874;DHT22;6505;51.114;13.128;2022-09-21T13:22:35;20.10;54.50
12874;DHT22;6505;51.114;13.128;2022-09-21T13:25:06;20.20;54.70
12874;DHT22;6505;51.114;13.128;2022-09-21T13:27:58;20.10;54.50
12874;DHT22;6505;51.114;13.128;2022-09-21T13:30:37;20.10;54.60
12874;DHT22;6505;51.114;13.128;2022-09-21T13:33:36;20.10;54.50
12874;DHT22;6505;51.114;13.128;2022-09-21T13:36:28;20.10;54.30
12874;DHT22;6505;51.114;13.128;2022-09-21T13:39:15;20.10;53.30
12874;DHT22;6505;51.114;13.128;2022-09-21T13:41:45;20.10;52.90
12874;DHT22;6505;51.114;13.128;2022-09-21T13:44:41;20.10;52.70
12874;DHT22;6505;51.114;13.128;2022-09-21T13:47:11;20.10;52.80
12874;DHT22;6505;51.114;13.128;2022-09-21T13:49:47;20.10;52.50
12874;DHT22;6505;51.114;13.128;2022-09-21T13:52:29;20.10;52.90
12874;DHT22;6505;51.114;13.128;2022-09-21T13:55:22;20.10;52.90
12874;DHT22;6505;51.114;13.128;2022-09-21T13:57:56;20.10;53.10
12874;DHT22;6505;51.114;13.128;2022-09-21T14:00:33;20.10;53.10
12874;DHT22;6505;51.114;13.128;2022-09-21T14:03:16;20.10;53.00
12874;DHT22;6505;51.114;13.128;2022-09-21T14:05:49;20.10;53.20
12874;DHT22;6505;51.114;13.128;2022-09-21T14:08:24;20.10;52.90
12874;DHT22;6505;51.114;13.128;2022-09-21T14:11:00;20.10;53.30
12874;DHT22;6505;51.114;13.128;2022-09-21T14:13:33;20.10;52.90
12874;DHT22;6505;51.114;13.128;2022-09-21T14:20:04;20.10;53.10
12874;DHT22;6505;51.114;13.128;2022-09-21T14:23:11;20.00;53.50
12874;DHT22;6505;51.114;13.128;2022-09-21T14:25:54;20.00;53.60
12874;DHT22;6505;51.114;13.128;2022-09-21T14:28:32;20.10;53.90
12874;DHT22;6505;51.114;13.128;2022-09-21T14:31:05;20.00;53.90
12874;DHT22;6505;51.114;13.128;2022-09-21T14:33:44;20.10;53.70
12874;DHT22;6505;51.114;13.128;2022-09-21T14:36:18;20.00;53.40
12874;DHT22;6505;51.114;13.128;2022-09-21T14:38:52;20.00;53.30
12874;DHT22;6505;51.114;13.128;2022-09-21T14:41:29;20.10;53.20
12874;DHT22;6505;51.114;13.128;2022-09-21T14:44:04;20.00;52.70
12874;DHT22;6505;51.114;13.128;2022-09-21T14:46:53;20.00;52.30
12874;DHT22;6505;51.114;13.128;2022-09-21T14:53:12;20.00;52.20
12874;DHT22;6505;51.114;13.128;2022-09-21T14:56:05;20.00;52.50
12874;DHT22;6505;51.114;13.128;2022-09-21T14:58:59;20.00;52.80
12874;DHT22;6505;51.114;13.128;2022-09-21T15:01:54;20.00;52.80
12874;DHT22;6505;51.114;13.128;2022-09-21T15:04:31;20.00;52.60
12874;DHT22;6505;51.114;13.128;2022-09-21T15:07:32;20.00;52.70
12874;DHT22;6505;51.114;13.128;2022-09-21T15:10:25;19.90;52.50
12874;DHT22;6505;51.114;13.128;2022-09-21T15:13:41;19.90;52.80
12874;DHT22;6505;51.114;13.128;2022-09-21T15:16:23;19.90;52.90
12874;DHT22;6505;51.114;13.128;2022-09-21T15:19:11;19.90;53.10
12874;DHT22;6505;51.114;13.128;2022-09-21T15:21:51;19.90;52.90
12874;DHT22;6505;51.114;13.128;2022-09-21T15:24:24;19.90;53.10
12874;DHT22;6505;51.114;13.128;2022-09-21T15:27:06;19.90;53.10
12874;DHT22;6505;51.114;13.128;2022-09-21T15:29:36;19.90;53.20
12874;DHT22;6505;51.114;13.128;2022-09-21T15:32:07;19.80;53.50
12874;DHT22;6505;51.114;13.128;2022-09-21T15:34:35;19.90;53.90
12874;DHT22;6505;51.114;13.128;2022-09-21T15:37:11;19.80;53.80
12874;DHT22;6505;51.114;13.128;2022-09-21T15:39:42;19.90;54.20
12874;DHT22;6505;51.114;13.128;2022-09-21T15:42:16;19.90;54.30
12874;DHT22;6505;51.114;13.128;2022-09-21T15:44:49;19.80;54.30
12874;DHT22;6505;51.114;13.128;2022-09-21T15:47:33;19.80;55.00
12874;DHT22;6505;51.114;13.128;2022-09-21T15:50:01;19.80;54.30
12874;DHT22;6505;51.114;13.128;2022-09-21T15:52:33;19.80;54.30
12874;DHT22;6505;51.114;13.128;2022-09-21T15:55:13;19.80;54.30
12874;DHT22;6505;51.114;13.128;2022-09-21T15:57:48;19.90;54.40
12874;DHT22;6505;51.114;13.128;2022-09-21T16:00:23;19.80;54.70
12874;DHT22;6505;51.114;13.128;2022-09-21T16:02:57;19.80;54.90
12874;DHT22;6505;51.114;13.128;2022-09-21T16:05:40;19.80;55.00
12874;DHT22;6505;51.114;13.128;2022-09-21T16:08:20;19.80;55.00
12874;DHT22;6505;51.114;13.128;2022-09-21T16:11:14;19.80;54.90
12874;DHT22;6505;51.114;13.128;2022-09-21T16:13:45;19.80;55.20
12874;DHT22;6505;51.114;13.128;2022-09-21T16:16:31;19.80;55.10
12874;DHT22;6505;51.114;13.128;2022-09-21T16:19:01;19.80;55.10
12874;DHT22;6505;51.114;13.128;2022-09-21T16:21:31;19.80;55.40
12874;DHT22;6505;51.114;13.128;2022-09-21T16:24:08;19.80;55.70
12874;DHT22;6505;51.114;13.128;2022-09-21T16:26:55;19.70;55.90
12874;DHT22;6505;51.114;13.128;2022-09-21T16:29:26;19.70;56.00
12874;DHT22;6505;51.114;13.128;2022-09-21T16:32:26;19.70;56.00
12874;DHT22;6505;51.114;13.128;2022-09-21T16:35:21;19.70;56.20
12874;DHT22;6505;51.114;13.128;2022-09-21T16:37:53;19.70;56.20